sensor_id;sensor_type;location;lat;lon;timestamp;pressure;altitude;pressure_sealevel;temperature;humidity
78064;BME280;67429;51.596;-3.264;2023-05-10T00:01:58;99137.08;;;9.31;60.80
78064;BME280;67429;51.596;-3.264;2023-05-10T00:04:24;99136.50;;;9.04;61.33
78064;BME280;67429;51.596;-3.264;2023-05-10T00:06:49;99131.85;;;9.02;61.97
78064;BME280;67429;51.596;-3.264;2023-05-10T00:09:14;99130.82;;;8.99;60.96
78064;BME280;67429;51.596;-3.264;2023-05-10T00:11:40;99128.78;;;9.05;61.26
78064;BME280;67429;51.596;-3.264;2023-05-10T00:14:05;99128.42;;;9.70;58.72
78064;BME280;67429;51.596;-3.264;2023-05-10T00:16:31;99130.69;;;10.05;57.67
78064;BME280;67429;51.596;-3.264;2023-05-10T00:18:56;99127.09;;;9.79;56.41
78064;BME280;67429;51.596;-3.264;2023-05-10T00:21:22;99125.66;;;10.15;55.12
78064;BME280;67429;51.596;-3.264;2023-05-10T00:23:48;99120.52;;;9.90;55.15
78064;BME280;67429;51.596;-3.264;2023-05-10T00:26:13;99121.05;;;10.02;54.81
78064;BME280;67429;51.596;-3.264;2023-05-10T00:28:39;99126.14;;;10.14;53.96
78064;BME280;67429;51.596;-3.264;2023-05-10T00:31:05;99131.01;;;10.08;53.60
78064;BME280;67429;51.596;-3.264;2023-05-10T00:33:30;99133.01;;;10.37;53.59
78064;BME280;67429;51.596;-3.264;2023-05-10T00:35:56;99133.38;;;9.43;54.93
78064;BME280;67429;51.596;-3.264;2023-05-10T00:38:21;99128.03;;;8.60;59.24
78064;BME280;67429;51.596;-3.264;2023-05-10T00:40:47;99131.02;;;8.72;59.08
78064;BME280;67429;51.596;-3.264;2023-05-10T00:43:12;99127.77;;;8.10;60.75
78064;BME280;67429;51.596;-3.264;2023-05-10T00:45:40;99124.17;;;8.49;60.74
78064;BME280;67429;51.596;-3.264;2023-05-10T00:48:04;99121.58;;;8.54;59.80
78064;BME280;67429;51.596;-3.264;2023-05-10T00:50:30;99123.95;;;9.43;57.23
78064;BME280;67429;51.596;-3.264;2023-05-10T00:52:55;99121.87;;;9.51;55.54
78064;BME280;67429;51.596;-3.264;2023-05-10T00:55:21;99122.08;;;9.74;54.30
78064;BME280;67429;51.596;-3.264;2023-05-10T00:57:47;99124.94;;;9.74;54.13
78064;BME280;67429;51.596;-3.264;2023-05-10T01:00:13;99127.35;;;9.30;54.87
78064;BME280;67429;51.596;-3.264;2023-05-10T01:02:37;99122.69;;;8.71;57.38
78064;BME280;67429;51.596;-3.264;2023-05-10T01:05:03;99123.39;;;8.11;59.57
78064;BME280;67429;51.596;-3.264;2023-05-10T01:07:28;99119.50;;;8.19;59.65
78064;BME280;67429;51.596;-3.264;2023-05-10T01:09:53;99115.32;;;8.19;61.31
78064;BME280;67429;51.596;-3.264;2023-05-10T01:12:19;99120.11;;;8.48;61.08
78064;BME280;67429;51.596;-3.264;2023-05-10T01:14:45;99122.14;;;8.86;58.74
78064;BME280;67429;51.596;-3.264;2023-05-10T01:17:11;99125.10;;;9.06;56.72
78064;BME280;67429;51.596;-3.264;2023-05-10T01:19:35;99122.67;;;8.88;58.08
78064;BME280;67429;51.596;-3.264;2023-05-10T01:22:10;99118.46;;;8.47;59.59
78064;BME280;67429;51.596;-3.264;2023-05-10T01:24:40;99118.13;;;8.32;60.50
78064;BME280;67429;51.596;-3.264;2023-05-10T01:29:31;99117.87;;;9.29;58.16
78064;BME280;67429;51.596;-3.264;2023-05-10T01:34:15;99129.52;;;9.22;56.31
78064;BME280;67429;51.596;-3.264;2023-05-10T01:36:42;99124.60;;;9.34;55.76
78064;BME280;67429;51.596;-3.264;2023-05-10T01:39:02;99125.06;;;9.42;55.23
78064;BME280;67429;51.596;-3.264;2023-05-10T01:41:30;99126.62;;;9.26;55.90
78064;BME280;67429;51.596;-3.264;2023-05-10T01:43:55;99125.13;;;9.18;57.39
78064;BME280;67429;51.596;-3.264;2023-05-10T01:46:19;99117.24;;;7.89;61.57
78064;BME280;67429;51.596;-3.264;2023-05-10T01:48:47;99115.92;;;8.29;62.57
78064;BME280;67429;51.596;-3.264;2023-05-10T01:51:07;99114.73;;;8.34;61.80
78064;BME280;67429;51.596;-3.264;2023-05-10T01:53:33;99118.90;;;9.20;58.97
78064;BME280;67429;51.596;-3.264;2023-05-10T01:55:59;99118.16;;;9.25;57.07
78064;BME280;67429;51.596;-3.264;2023-05-10T01:58:27;99116.46;;;9.28;56.49
78064;BME280;67429;51.596;-3.264;2023-05-10T02:00:50;99113.62;;;9.07;57.77
78064;BME280;67429;51.596;-3.264;2023-05-10T02:03:15;99113.09;;;9.44;57.02
78064;BME280;67429;51.596;-3.264;2023-05-10T02:05:41;99104.02;;;9.38;55.68
78064;BME280;67429;51.596;-3.264;2023-05-10T02:08:07;99100.93;;;8.81;58.73
78064;BME280;67429;51.596;-3.264;2023-05-10T02:10:32;99101.46;;;8.50;59.38
78064;BME280;67429;51.596;-3.264;2023-05-10T02:12:58;99099.67;;;8.13;60.75
78064;BME280;67429;51.596;-3.264;2023-05-10T02:15:23;99101.89;;;8.69;59.55
78064;BME280;67429;51.596;-3.264;2023-05-10T02:17:48;99102.26;;;8.63;58.37
78064;BME280;67429;51.596;-3.264;2023-05-10T02:20:14;99100.19;;;8.69;60.34
78064;BME280;67429;51.596;-3.264;2023-05-10T02:22:39;99098.40;;;8.18;61.44
78064;BME280;67429;51.596;-3.264;2023-05-10T02:25:06;99104.26;;;8.55;61.40
78064;BME280;67429;51.596;-3.264;2023-05-10T02:27:30;99104.13;;;8.01;61.67
78064;BME280;67429;51.596;-3.264;2023-05-10T02:29:56;99103.44;;;8.12;62.12
78064;BME280;67429;51.596;-3.264;2023-05-10T02:32:22;99105.65;;;8.56;60.81
78064;BME280;67429;51.596;-3.264;2023-05-10T02:34:47;99111.20;;;9.02;60.18
78064;BME280;67429;51.596;-3.264;2023-05-10T02:37:12;99108.60;;;8.40;61.08
78064;BME280;67429;51.596;-3.264;2023-05-10T02:39:38;99106.31;;;7.66;63.12
78064;BME280;67429;51.596;-3.264;2023-05-10T02:42:03;99106.78;;;7.54;64.07
78064;BME280;67429;51.596;-3.264;2023-05-10T02:44:28;99110.42;;;7.64;63.94
78064;BME280;67429;51.596;-3.264;2023-05-10T02:46:54;99112.06;;;7.43;63.90
78064;BME280;67429;51.596;-3.264;2023-05-10T02:49:19;99110.65;;;7.62;63.19
78064;BME280;67429;51.596;-3.264;2023-05-10T02:51:49;99110.78;;;7.58;63.26
78064;BME280;67429;51.596;-3.264;2023-05-10T02:54:13;99112.71;;;7.80;62.30
78064;BME280;67429;51.596;-3.264;2023-05-10T02:56:36;99113.08;;;7.49;64.21
78064;BME280;67429;51.596;-3.264;2023-05-10T02:59:00;99111.81;;;7.45;63.34
78064;BME280;67429;51.596;-3.264;2023-05-10T03:01:26;99117.49;;;7.39;64.74
78064;BME280;67429;51.596;-3.264;2023-05-10T03:03:51;99119.02;;;7.14;64.69
78064;BME280;67429;51.596;-3.264;2023-05-10T03:06:17;99118.78;;;7.34;65.28
78064;BME280;67429;51.596;-3.264;2023-05-10T03:08:43;99119.21;;;7.45;64.50
78064;BME280;67429;51.596;-3.264;2023-05-10T03:11:22;99119.86;;;7.99;60.93
78064;BME280;67429;51.596;-3.264;2023-05-10T03:13:39;99126.17;;;7.91;62.41
78064;BME280;67429;51.596;-3.264;2023-05-10T03:16:05;99123.85;;;8.02;61.82
78064;BME280;67429;51.596;-3.264;2023-05-10T03:18:32;99127.51;;;7.34;64.33
78064;BME280;67429;51.596;-3.264;2023-05-10T03:20:54;99128.23;;;7.26;65.27
78064;BME280;67429;51.596;-3.264;2023-05-10T03:23:22;99125.52;;;8.11;62.64
78064;BME280;67429;51.596;-3.264;2023-05-10T03:25:41;99126.59;;;8.76;60.15
78064;BME280;67429;51.596;-3.264;2023-05-10T03:28:07;99132.58;;;8.83;58.58
78064;BME280;67429;51.596;-3.264;2023-05-10T03:30:33;99127.69;;;7.93;61.59
78064;BME280;67429;51.596;-3.264;2023-05-10T03:32:57;99130.08;;;7.87;61.13
78064;BME280;67429;51.596;-3.264;2023-05-10T03:35:23;99132.42;;;8.32;60.30
78064;BME280;67429;51.596;-3.264;2023-05-10T03:37:48;99132.96;;;8.48;60.27
78064;BME280;67429;51.596;-3.264;2023-05-10T03:40:14;99130.84;;;8.22;61.28
78064;BME280;67429;51.596;-3.264;2023-05-10T03:42:39;99132.53;;;8.94;59.30
78064;BME280;67429;51.596;-3.264;2023-05-10T03:45:07;99133.07;;;7.93;60.66
78064;BME280;67429;51.596;-3.264;2023-05-10T03:47:31;99131.95;;;7.91;60.89
78064;BME280;67429;51.596;-3.264;2023-05-10T03:49:56;99136.55;;;8.19;61.51
78064;BME280;67429;51.596;-3.264;2023-05-10T03:52:22;99148.80;;;8.04;61.18
78064;BME280;67429;51.596;-3.264;2023-05-10T03:54:47;99138.72;;;7.26;62.68
78064;BME280;67429;51.596;-3.264;2023-05-10T03:57:18;99142.86;;;7.94;61.76
78064;BME280;67429;51.596;-3.264;2023-05-10T03:59:38;99143.24;;;8.16;60.57
78064;BME280;67429;51.596;-3.264;2023-05-10T04:02:04;99142.90;;;8.23;60.26
78064;BME280;67429;51.596;-3.264;2023-05-10T04:04:30;99142.33;;;8.89;59.27
78064;BME280;67429;51.596;-3.264;2023-05-10T04:06:55;99144.19;;;8.90;59.02
78064;BME280;67429;51.596;-3.264;2023-05-10T04:09:21;99146.24;;;8.86;59.26
78064;BME280;67429;51.596;-3.264;2023-05-10T04:11:46;99144.36;;;9.41;57.37
78064;BME280;67429;51.596;-3.264;2023-05-10T04:14:12;99149.13;;;9.16;57.66
78064;BME280;67429;51.596;-3.264;2023-05-10T04:16:37;99142.60;;;9.49;57.49
78064;BME280;67429;51.596;-3.264;2023-05-10T04:19:03;99136.61;;;9.01;59.86
78064;BME280;67429;51.596;-3.264;2023-05-10T04:21:28;99132.46;;;8.53;61.15
78064;BME280;67429;51.596;-3.264;2023-05-10T04:23:54;99133.89;;;8.37;62.95
78064;BME280;67429;51.596;-3.264;2023-05-10T04:26:20;99133.17;;;8.10;65.19
78064;BME280;67429;51.596;-3.264;2023-05-10T04:28:45;99132.78;;;7.48;64.90
78064;BME280;67429;51.596;-3.264;2023-05-10T04:31:11;99131.71;;;8.75;63.16
78064;BME280;67429;51.596;-3.264;2023-05-10T04:33:37;99128.94;;;8.65;62.39
78064;BME280;67429;51.596;-3.264;2023-05-10T04:36:03;99125.40;;;8.73;62.40
78064;BME280;67429;51.596;-3.264;2023-05-10T04:38:29;99132.21;;;9.83;60.51
78064;BME280;67429;51.596;-3.264;2023-05-10T04:40:54;99131.40;;;9.64;59.79
78064;BME280;67429;51.596;-3.264;2023-05-10T04:43:19;99132.53;;;9.49;59.15
78064;BME280;67429;51.596;-3.264;2023-05-10T04:45:45;99130.15;;;9.72;59.44
78064;BME280;67429;51.596;-3.264;2023-05-10T04:48:11;99132.34;;;9.70;58.95
78064;BME280;67429;51.596;-3.264;2023-05-10T04:50:36;99133.34;;;9.57;59.33
78064;BME280;67429;51.596;-3.264;2023-05-10T04:53:01;99132.31;;;9.55;59.83
78064;BME280;67429;51.596;-3.264;2023-05-10T04:55:27;99136.93;;;9.69;59.81
78064;BME280;67429;51.596;-3.264;2023-05-10T04:57:52;99137.26;;;9.97;59.34
78064;BME280;67429;51.596;-3.264;2023-05-10T05:00:18;99134.59;;;10.05;59.54
78064;BME280;67429;51.596;-3.264;2023-05-10T05:02:45;99140.60;;;9.34;61.69
78064;BME280;67429;51.596;-3.264;2023-05-10T05:05:09;99147.15;;;9.61;60.75
78064;BME280;67429;51.596;-3.264;2023-05-10T05:07:34;99145.50;;;9.51;61.90
78064;BME280;67429;51.596;-3.264;2023-05-10T05:09:59;99141.29;;;10.03;60.29
78064;BME280;67429;51.596;-3.264;2023-05-10T05:12:24;99136.74;;;10.71;58.21
78064;BME280;67429;51.596;-3.264;2023-05-10T05:14:50;99142.05;;;10.55;58.23
78064;BME280;67429;51.596;-3.264;2023-05-10T05:17:15;99144.13;;;11.00;57.12
78064;BME280;67429;51.596;-3.264;2023-05-10T05:19:41;99144.93;;;11.37;56.42
78064;BME280;67429;51.596;-3.264;2023-05-10T05:22:07;99144.93;;;11.51;56.17
78064;BME280;67429;51.596;-3.264;2023-05-10T05:24:35;99149.48;;;11.81;56.26
78064;BME280;67429;51.596;-3.264;2023-05-10T05:26:58;99151.17;;;11.78;54.81
78064;BME280;67429;51.596;-3.264;2023-05-10T05:29:23;99156.34;;;11.82;54.74
78064;BME280;67429;51.596;-3.264;2023-05-10T05:31:49;99155.22;;;11.32;55.71
78064;BME280;67429;51.596;-3.264;2023-05-10T05:34:14;99155.77;;;11.39;55.24
78064;BME280;67429;51.596;-3.264;2023-05-10T05:36:40;99157.66;;;11.89;55.28
78064;BME280;67429;51.596;-3.264;2023-05-10T05:39:05;99158.63;;;11.41;56.14
78064;BME280;67429;51.596;-3.264;2023-05-10T05:41:31;99163.80;;;12.09;54.71
78064;BME280;67429;51.596;-3.264;2023-05-10T05:43:56;99166.54;;;11.43;55.37
78064;BME280;67429;51.596;-3.264;2023-05-10T05:46:21;99165.84;;;11.88;55.07
78064;BME280;67429;51.596;-3.264;2023-05-10T05:48:47;99166.05;;;11.71;55.50
78064;BME280;67429;51.596;-3.264;2023-05-10T05:51:12;99174.05;;;11.98;56.06
78064;BME280;67429;51.596;-3.264;2023-05-10T05:53:37;99172.41;;;12.18;53.95
78064;BME280;67429;51.596;-3.264;2023-05-10T05:56:03;99172.78;;;12.25;55.64
78064;BME280;67429;51.596;-3.264;2023-05-10T05:58:29;99173.90;;;12.38;54.80
78064;BME280;67429;51.596;-3.264;2023-05-10T06:00:54;99171.92;;;12.65;54.62
78064;BME280;67429;51.596;-3.264;2023-05-10T06:03:20;99168.67;;;12.77;54.08
78064;BME280;67429;51.596;-3.264;2023-05-10T06:05:45;99172.31;;;13.07;54.23
78064;BME280;67429;51.596;-3.264;2023-05-10T06:08:12;99172.81;;;12.70;54.68
78064;BME280;67429;51.596;-3.264;2023-05-10T06:10:36;99173.58;;;13.47;53.41
78064;BME280;67429;51.596;-3.264;2023-05-10T06:13:02;99179.22;;;13.36;54.26
78064;BME280;67429;51.596;-3.264;2023-05-10T06:15:27;99173.24;;;12.50;53.71
78064;BME280;67429;51.596;-3.264;2023-05-10T06:17:53;99174.38;;;12.52;54.07
78064;BME280;67429;51.596;-3.264;2023-05-10T06:20:19;99178.47;;;12.90;53.94
78064;BME280;67429;51.596;-3.264;2023-05-10T06:22:49;99178.94;;;13.44;54.18
78064;BME280;67429;51.596;-3.264;2023-05-10T06:25:10;99184.09;;;14.00;54.34
78064;BME280;67429;51.596;-3.264;2023-05-10T06:27:35;99185.24;;;13.43;53.87
78064;BME280;67429;51.596;-3.264;2023-05-10T06:30:01;99190.35;;;14.21;53.72
78064;BME280;67429;51.596;-3.264;2023-05-10T06:32:31;99194.58;;;14.28;51.29
78064;BME280;67429;51.596;-3.264;2023-05-10T06:34:52;99195.49;;;14.03;53.40
78064;BME280;67429;51.596;-3.264;2023-05-10T06:37:17;99194.15;;;13.93;52.56
78064;BME280;67429;51.596;-3.264;2023-05-10T06:39:43;99195.96;;;13.22;53.88
78064;BME280;67429;51.596;-3.264;2023-05-10T06:42:09;99201.51;;;13.77;52.90
78064;BME280;67429;51.596;-3.264;2023-05-10T06:44:34;99202.99;;;13.65;52.59
78064;BME280;67429;51.596;-3.264;2023-05-10T06:47:00;99201.26;;;13.30;53.69
78064;BME280;67429;51.596;-3.264;2023-05-10T06:49:25;99198.99;;;13.05;53.71
78064;BME280;67429;51.596;-3.264;2023-05-10T06:51:51;99198.11;;;13.43;53.45
78064;BME280;67429;51.596;-3.264;2023-05-10T06:54:16;99202.79;;;13.71;52.36
78064;BME280;67429;51.596;-3.264;2023-05-10T06:56:42;99206.19;;;13.84;52.13
78064;BME280;67429;51.596;-3.264;2023-05-10T06:59:07;99205.74;;;13.65;52.70
78064;BME280;67429;51.596;-3.264;2023-05-10T07:01:38;99203.37;;;13.75;53.49
78064;BME280;67429;51.596;-3.264;2023-05-10T07:03:58;99205.97;;;13.39;53.07
78064;BME280;67429;51.596;-3.264;2023-05-10T07:06:24;99208.79;;;13.87;53.21
78064;BME280;67429;51.596;-3.264;2023-05-10T07:08:49;99206.00;;;13.43;53.41
78064;BME280;67429;51.596;-3.264;2023-05-10T07:11:14;99210.79;;;14.20;52.66
78064;BME280;67429;51.596;-3.264;2023-05-10T07:13:40;99214.06;;;13.60;52.47
78064;BME280;67429;51.596;-3.264;2023-05-10T07:16:05;99213.96;;;14.16;52.62
78064;BME280;67429;51.596;-3.264;2023-05-10T07:18:31;99216.28;;;14.10;52.25
78064;BME280;67429;51.596;-3.264;2023-05-10T07:20:57;99215.40;;;13.45;52.18
78064;BME280;67429;51.596;-3.264;2023-05-10T07:23:22;99218.13;;;13.72;52.96
78064;BME280;67429;51.596;-3.264;2023-05-10T07:25:49;99221.63;;;13.78;52.14
78064;BME280;67429;51.596;-3.264;2023-05-10T07:28:19;99220.63;;;14.04;53.12
78064;BME280;67429;51.596;-3.264;2023-05-10T07:30:39;99222.10;;;14.30;52.02
78064;BME280;67429;51.596;-3.264;2023-05-10T07:33:05;99221.18;;;14.36;52.18
78064;BME280;67429;51.596;-3.264;2023-05-10T07:35:31;99221.87;;;14.64;51.76
78064;BME280;67429;51.596;-3.264;2023-05-10T07:37:56;99223.27;;;13.62;53.14
78064;BME280;67429;51.596;-3.264;2023-05-10T07:40:21;99225.53;;;13.85;53.20
78064;BME280;67429;51.596;-3.264;2023-05-10T07:42:46;99223.64;;;13.43;53.52
78064;BME280;67429;51.596;-3.264;2023-05-10T07:45:12;99226.35;;;14.14;53.80
78064;BME280;67429;51.596;-3.264;2023-05-10T07:47:38;99225.30;;;14.31;53.04
78064;BME280;67429;51.596;-3.264;2023-05-10T07:50:04;99231.14;;;14.21;51.38
78064;BME280;67429;51.596;-3.264;2023-05-10T07:52:29;99229.65;;;14.89;50.46
78064;BME280;67429;51.596;-3.264;2023-05-10T07:54:54;99226.75;;;14.27;52.31
78064;BME280;67429;51.596;-3.264;2023-05-10T07:57:20;99223.35;;;14.22;51.87
78064;BME280;67429;51.596;-3.264;2023-05-10T07:59:45;99221.53;;;13.44;53.71
78064;BME280;67429;51.596;-3.264;2023-05-10T08:02:11;99221.38;;;13.57;51.97
78064;BME280;67429;51.596;-3.264;2023-05-10T08:04:36;99219.02;;;13.08;53.60
78064;BME280;67429;51.596;-3.264;2023-05-10T08:07:01;99214.56;;;13.01;53.58
78064;BME280;67429;51.596;-3.264;2023-05-10T08:09:28;99220.45;;;13.03;54.07
78064;BME280;67429;51.596;-3.264;2023-05-10T08:11:53;99218.45;;;12.72;53.58
78064;BME280;67429;51.596;-3.264;2023-05-10T08:14:18;99222.40;;;12.69;54.23
78064;BME280;67429;51.596;-3.264;2023-05-10T08:16:44;99224.28;;;13.36;53.36
78064;BME280;67429;51.596;-3.264;2023-05-10T08:19:09;99225.45;;;13.22;53.01
78064;BME280;67429;51.596;-3.264;2023-05-10T08:21:35;99226.69;;;13.20;53.33
78064;BME280;67429;51.596;-3.264;2023-05-10T08:24:01;99228.08;;;13.94;52.24
78064;BME280;67429;51.596;-3.264;2023-05-10T08:26:26;99225.76;;;13.43;51.95
78064;BME280;67429;51.596;-3.264;2023-05-10T08:28:52;99225.15;;;13.44;52.62
78064;BME280;67429;51.596;-3.264;2023-05-10T08:31:17;99225.34;;;14.28;51.03
78064;BME280;67429;51.596;-3.264;2023-05-10T08:33:43;99229.64;;;14.67;50.06
78064;BME280;67429;51.596;-3.264;2023-05-10T08:36:08;99232.55;;;15.40;48.21
78064;BME280;67429;51.596;-3.264;2023-05-10T08:38:34;99235.33;;;14.62;49.75
78064;BME280;67429;51.596;-3.264;2023-05-10T08:41:00;99235.94;;;14.31;49.95
78064;BME280;67429;51.596;-3.264;2023-05-10T08:43:27;99234.33;;;14.89;49.07
78064;BME280;67429;51.596;-3.264;2023-05-10T08:45:52;99233.91;;;14.59;49.83
78064;BME280;67429;51.596;-3.264;2023-05-10T08:48:16;99234.21;;;15.08;48.07
78064;BME280;67429;51.596;-3.264;2023-05-10T08:50:42;99229.39;;;15.48;48.58
78064;BME280;67429;51.596;-3.264;2023-05-10T08:53:10;99230.02;;;16.35;47.37
78064;BME280;67429;51.596;-3.264;2023-05-10T08:55:33;99231.63;;;16.73;45.71
78064;BME280;67429;51.596;-3.264;2023-05-10T08:57:58;99238.56;;;14.69;48.42
78064;BME280;67429;51.596;-3.264;2023-05-10T09:00:24;99239.56;;;13.69;52.27
78064;BME280;67429;51.596;-3.264;2023-05-10T09:02:49;99237.62;;;11.33;58.82
78064;BME280;67429;51.596;-3.264;2023-05-10T09:05:14;99238.12;;;11.22;62.05
78064;BME280;67429;51.596;-3.264;2023-05-10T09:07:40;99240.39;;;10.94;63.23
78064;BME280;67429;51.596;-3.264;2023-05-10T09:10:07;99244.80;;;11.00;64.41
78064;BME280;67429;51.596;-3.264;2023-05-10T09:12:31;99240.99;;;11.40;61.58
78064;BME280;67429;51.596;-3.264;2023-05-10T09:14:58;99244.78;;;12.31;60.72
78064;BME280;67429;51.596;-3.264;2023-05-10T09:17:23;99246.38;;;11.68;60.84
78064;BME280;67429;51.596;-3.264;2023-05-10T09:19:48;99247.23;;;11.95;60.71
78064;BME280;67429;51.596;-3.264;2023-05-10T09:22:14;99250.89;;;12.42;60.43
78064;BME280;67429;51.596;-3.264;2023-05-10T09:24:39;99249.29;;;12.74;60.04
78064;BME280;67429;51.596;-3.264;2023-05-10T09:27:04;99251.68;;;12.74;58.80
78064;BME280;67429;51.596;-3.264;2023-05-10T09:29:40;99255.67;;;12.06;59.21
78064;BME280;67429;51.596;-3.264;2023-05-10T09:31:55;99254.11;;;13.08;57.51
78064;BME280;67429;51.596;-3.264;2023-05-10T09:34:29;99251.72;;;12.61;56.97
78064;BME280;67429;51.596;-3.264;2023-05-10T09:36:52;99252.10;;;12.60;57.66
78064;BME280;67429;51.596;-3.264;2023-05-10T09:39:12;99253.17;;;12.57;57.84
78064;BME280;67429;51.596;-3.264;2023-05-10T09:41:37;99249.10;;;12.16;59.24
78064;BME280;67429;51.596;-3.264;2023-05-10T09:44:03;99251.42;;;12.78;57.71
78064;BME280;67429;51.596;-3.264;2023-05-10T09:46:28;99255.87;;;12.40;56.68
78064;BME280;67429;51.596;-3.264;2023-05-10T09:48:54;99253.40;;;12.76;56.28
78064;BME280;67429;51.596;-3.264;2023-05-10T09:51:19;99258.46;;;13.36;56.21
78064;BME280;67429;51.596;-3.264;2023-05-10T09:53:45;99259.04;;;13.36;55.77
78064;BME280;67429;51.596;-3.264;2023-05-10T09:56:11;99255.85;;;12.27;58.00
78064;BME280;67429;51.596;-3.264;2023-05-10T09:58:36;99257.16;;;12.93;57.77
78064;BME280;67429;51.596;-3.264;2023-05-10T10:01:02;99254.97;;;13.28;56.57
78064;BME280;67429;51.596;-3.264;2023-05-10T10:03:28;99251.58;;;14.03;54.64
78064;BME280;67429;51.596;-3.264;2023-05-10T10:05:52;99253.38;;;13.82;54.26
78064;BME280;67429;51.596;-3.264;2023-05-10T10:08:18;99253.19;;;14.25;54.50
78064;BME280;67429;51.596;-3.264;2023-05-10T10:10:48;99255.66;;;13.50;54.26
78064;BME280;67429;51.596;-3.264;2023-05-10T10:13:09;99251.28;;;14.10;53.17
78064;BME280;67429;51.596;-3.264;2023-05-10T10:15:35;99251.45;;;14.07;52.52
78064;BME280;67429;51.596;-3.264;2023-05-10T10:18:00;99248.28;;;14.13;53.37
78064;BME280;67429;51.596;-3.264;2023-05-10T10:20:26;99250.57;;;13.19;53.24
78064;BME280;67429;51.596;-3.264;2023-05-10T10:22:51;99252.64;;;12.89;55.39
78064;BME280;67429;51.596;-3.264;2023-05-10T10:25:17;99256.77;;;11.76;59.17
78064;BME280;67429;51.596;-3.264;2023-05-10T10:27:47;99256.52;;;11.77;59.70
78064;BME280;67429;51.596;-3.264;2023-05-10T10:30:16;99257.72;;;11.84;61.30
78064;BME280;67429;51.596;-3.264;2023-05-10T10:32:42;99260.20;;;12.23;60.80
78064;BME280;67429;51.596;-3.264;2023-05-10T10:34:59;99259.92;;;12.41;62.37
78064;BME280;67429;51.596;-3.264;2023-05-10T10:39:50;99250.86;;;14.04;57.76
78064;BME280;67429;51.596;-3.264;2023-05-10T10:44:41;99250.96;;;14.96;57.72
78064;BME280;67429;51.596;-3.264;2023-05-10T10:47:10;99250.53;;;14.48;54.60
78064;BME280;67429;51.596;-3.264;2023-05-10T10:49:32;99249.07;;;14.59;56.01
78064;BME280;67429;51.596;-3.264;2023-05-10T10:52:13;99249.76;;;16.05;53.63
78064;BME280;67429;51.596;-3.264;2023-05-10T10:54:27;99244.62;;;16.61;50.96
78064;BME280;67429;51.596;-3.264;2023-05-10T10:59:12;99249.01;;;14.80;51.34
78064;BME280;67429;51.596;-3.264;2023-05-10T11:01:41;99245.40;;;15.23;50.74
78064;BME280;67429;51.596;-3.264;2023-05-10T11:04:18;99244.95;;;15.61;50.42
78064;BME280;67429;51.596;-3.264;2023-05-10T11:06:35;99244.81;;;16.38;48.52
78064;BME280;67429;51.596;-3.264;2023-05-10T11:08:55;99243.63;;;16.68;48.13
78064;BME280;67429;51.596;-3.264;2023-05-10T11:11:20;99241.49;;;15.75;50.37
78064;BME280;67429;51.596;-3.264;2023-05-10T11:13:46;99246.95;;;15.08;50.51
78064;BME280;67429;51.596;-3.264;2023-05-10T11:16:14;99247.48;;;13.54;55.58
78064;BME280;67429;51.596;-3.264;2023-05-10T11:18:37;99252.58;;;12.25;58.57
78064;BME280;67429;51.596;-3.264;2023-05-10T11:21:02;99251.98;;;12.14;59.83
78064;BME280;67429;51.596;-3.264;2023-05-10T11:23:31;99255.29;;;12.69;60.54
78064;BME280;67429;51.596;-3.264;2023-05-10T11:25:54;99247.12;;;13.17;57.86
78064;BME280;67429;51.596;-3.264;2023-05-10T11:28:18;99244.03;;;13.01;57.87
78064;BME280;67429;51.596;-3.264;2023-05-10T11:30:45;99249.07;;;13.50;57.57
78064;BME280;67429;51.596;-3.264;2023-05-10T11:33:14;99252.42;;;15.41;54.56
78064;BME280;67429;51.596;-3.264;2023-05-10T11:35:39;99244.44;;;17.17;51.32
78064;BME280;67429;51.596;-3.264;2023-05-10T11:38:00;99245.06;;;15.80;47.86
78064;BME280;67429;51.596;-3.264;2023-05-10T11:40:25;99241.67;;;16.66;46.96
78064;BME280;67429;51.596;-3.264;2023-05-10T11:42:51;99238.14;;;15.74;48.81
78064;BME280;67429;51.596;-3.264;2023-05-10T11:45:17;99249.41;;;15.29;49.48
78064;BME280;67429;51.596;-3.264;2023-05-10T11:47:42;99257.77;;;14.96;52.04
78064;BME280;67429;51.596;-3.264;2023-05-10T11:50:08;99252.30;;;14.17;53.83
78064;BME280;67429;51.596;-3.264;2023-05-10T11:52:35;99250.54;;;13.97;53.29
78064;BME280;67429;51.596;-3.264;2023-05-10T11:54:59;99245.90;;;13.68;53.37
78064;BME280;67429;51.596;-3.264;2023-05-10T11:57:26;99242.17;;;13.61;53.46
78064;BME280;67429;51.596;-3.264;2023-05-10T11:59:53;99248.00;;;13.73;52.48
78064;BME280;67429;51.596;-3.264;2023-05-10T12:02:15;99245.76;;;14.40;51.26
78064;BME280;67429;51.596;-3.264;2023-05-10T12:04:41;99252.46;;;15.43;51.24
78064;BME280;67429;51.596;-3.264;2023-05-10T12:07:06;99250.42;;;15.24;50.26
78064;BME280;67429;51.596;-3.264;2023-05-10T12:09:32;99250.94;;;14.97;49.45
78064;BME280;67429;51.596;-3.264;2023-05-10T12:11:57;99249.42;;;13.80;50.11
78064;BME280;67429;51.596;-3.264;2023-05-10T12:14:22;99242.44;;;13.08;51.80
78064;BME280;67429;51.596;-3.264;2023-05-10T12:16:48;99242.28;;;13.60;51.81
78064;BME280;67429;51.596;-3.264;2023-05-10T12:19:18;99235.99;;;13.45;53.31
78064;BME280;67429;51.596;-3.264;2023-05-10T12:21:39;99241.34;;;14.00;52.36
78064;BME280;67429;51.596;-3.264;2023-05-10T12:24:04;99238.55;;;13.98;50.71
78064;BME280;67429;51.596;-3.264;2023-05-10T12:26:31;99243.65;;;13.78;51.32
78064;BME280;67429;51.596;-3.264;2023-05-10T12:31:21;99244.35;;;13.74;52.62
78064;BME280;67429;51.596;-3.264;2023-05-10T12:33:47;99244.98;;;12.72;52.83
78064;BME280;67429;51.596;-3.264;2023-05-10T12:36:14;99247.42;;;12.88;54.02
78064;BME280;67429;51.596;-3.264;2023-05-10T12:38:40;99247.89;;;12.66;55.07
78064;BME280;67429;51.596;-3.264;2023-05-10T12:41:05;99251.01;;;12.41;55.86
78064;BME280;67429;51.596;-3.264;2023-05-10T12:43:29;99250.83;;;12.83;54.94
78064;BME280;67429;51.596;-3.264;2023-05-10T12:45:54;99256.70;;;13.14;54.24
78064;BME280;67429;51.596;-3.264;2023-05-10T12:48:20;99254.52;;;13.53;53.13
78064;BME280;67429;51.596;-3.264;2023-05-10T12:50:46;99256.28;;;13.84;52.73
78064;BME280;67429;51.596;-3.264;2023-05-10T12:53:11;99243.70;;;14.09;51.29
78064;BME280;67429;51.596;-3.264;2023-05-10T12:55:36;99252.20;;;14.94;51.41
78064;BME280;67429;51.596;-3.264;2023-05-10T12:58:02;99257.60;;;15.83;48.39